sensor_id;sensor_type;location;lat;lon;timestamp;temperature;humidity
53045;DHT22;38930;52.766;6.884;2023-08-21T00:01:19;17.90;99.90
53045;DHT22;38930;52.766;6.884;2023-08-21T00:03:44;17.90;99.90
53045;DHT22;38930;52.766;6.884;2023-08-21T00:06:10;17.80;99.90
53045;DHT22;38930;52.766;6.884;2023-08-21T00:08:36;17.70;99.90
53045;DHT22;38930;52.766;6.884;2023-08-21T00:11:02;17.60;99.90
53045;DHT22;38930;52.766;6.884;2023-08-21T00:13:27;17.60;99.90
53045;DHT22;38930;52.766;6.884;2023-08-21T00:15:53;17.60;99.90
53045;DHT22;38930;52.766;6.884;2023-08-21T00:18:20;17.50;99.90
53045;DHT22;38930;52.766;6.884;2023-08-21T00:20:46;17.50;99.90
53045;DHT22;38930;52.766;6.884;2023-08-21T00:23:12;17.40;99.90
53045;DHT22;38930;52.766;6.884;2023-08-21T00:25:37;17.40;99.90
53045;DHT22;38930;52.766;6.884;2023-08-21T00:28:03;17.40;99.90
53045;DHT22;38930;52.766;6.884;2023-08-21T00:30:29;17.40;99.90
53045;DHT22;38930;52.766;6.884;2023-08-21T00:32:55;17.40;99.90
53045;DHT22;38930;52.766;6.884;2023-08-21T00:35:20;17.30;99.90
53045;DHT22;38930;52.766;6.884;2023-08-21T00:37:46;17.30;99.90
53045;DHT22;38930;52.766;6.884;2023-08-21T00:40:12;17.30;99.90
53045;DHT22;38930;52.766;6.884;2023-08-21T00:42:38;17.20;99.90
53045;DHT22;38930;52.766;6.884;2023-08-21T00:45:04;17.20;99.90
53045;DHT22;38930;52.766;6.884;2023-08-21T00:47:30;17.10;99.90
53045;DHT22;38930;52.766;6.884;2023-08-21T00:49:56;17.00;99.90
53045;DHT22;38930;52.766;6.884;2023-08-21T00:52:21;16.90;99.90
53045;DHT22;38930;52.766;6.884;2023-08-21T00:54:47;16.90;99.90
53045;DHT22;38930;52.766;6.884;2023-08-21T00:57:14;16.90;99.90
53045;DHT22;38930;52.766;6.884;2023-08-21T00:59:40;16.90;99.90
53045;DHT22;38930;52.766;6.884;2023-08-21T01:02:06;16.80;99.90
53045;DHT22;38930;52.766;6.884;2023-08-21T01:04:31;16.80;99.90
53045;DHT22;38930;52.766;6.884;2023-08-21T01:06:57;16.80;99.90
53045;DHT22;38930;52.766;6.884;2023-08-21T01:12:37;16.80;99.90
53045;DHT22;38930;52.766;6.884;2023-08-21T01:15:06;16.70;99.90
53045;DHT22;38930;52.766;6.884;2023-08-21T01:17:37;16.70;99.90
53045;DHT22;38930;52.766;6.884;2023-08-21T01:20:05;16.60;99.90
53045;DHT22;38930;52.766;6.884;2023-08-21T01:22:41;16.60;99.90
53045;DHT22;38930;52.766;6.884;2023-08-21T01:25:12;16.60;99.90
53045;DHT22;38930;52.766;6.884;2023-08-21T01:27:41;16.60;99.90
53045;DHT22;38930;52.766;6.884;2023-08-21T01:30:07;16.50;99.90
53045;DHT22;38930;52.766;6.884;2023-08-21T01:32:50;16.50;99.90
53045;DHT22;38930;52.766;6.884;2023-08-21T01:35:17;16.50;99.90
53045;DHT22;38930;52.766;6.884;2023-08-21T01:37:43;16.50;99.90
53045;DHT22;38930;52.766;6.884;2023-08-21T01:40:09;16.50;99.90
53045;DHT22;38930;52.766;6.884;2023-08-21T01:42:35;16.50;99.90
53045;DHT22;38930;52.766;6.884;2023-08-21T01:45:01;16.40;99.90
53045;DHT22;38930;52.766;6.884;2023-08-21T01:47:26;16.40;99.90
53045;DHT22;38930;52.766;6.884;2023-08-21T01:49:52;16.40;99.90
53045;DHT22;38930;52.766;6.884;2023-08-21T01:52:18;16.40;99.90
53045;DHT22;38930;52.766;6.884;2023-08-21T01:54:44;16.30;99.90
53045;DHT22;38930;52.766;6.884;2023-08-21T01:57:10;16.30;99.90
53045;DHT22;38930;52.766;6.884;2023-08-21T01:59:36;16.30;99.90
53045;DHT22;38930;52.766;6.884;2023-08-21T02:02:01;16.30;99.90
53045;DHT22;38930;52.766;6.884;2023-08-21T02:04:27;16.20;99.90
53045;DHT22;38930;52.766;6.884;2023-08-21T02:06:52;16.10;99.90
53045;DHT22;38930;52.766;6.884;2023-08-21T02:09:18;16.20;99.90
53045;DHT22;38930;52.766;6.884;2023-08-21T02:11:44;16.10;99.90
53045;DHT22;38930;52.766;6.884;2023-08-21T02:14:09;16.10;99.90
53045;DHT22;38930;52.766;6.884;2023-08-21T02:16:35;16.10;99.90
53045;DHT22;38930;52.766;6.884;2023-08-21T02:19:01;16.10;99.90
53045;DHT22;38930;52.766;6.884;2023-08-21T02:21:26;16.10;99.90
53045;DHT22;38930;52.766;6.884;2023-08-21T02:23:52;16.00;99.90
53045;DHT22;38930;52.766;6.884;2023-08-21T02:26:17;16.00;99.90
53045;DHT22;38930;52.766;6.884;2023-08-21T02:28:45;16.00;99.90
53045;DHT22;38930;52.766;6.884;2023-08-21T02:31:11;15.90;99.90
53045;DHT22;38930;52.766;6.884;2023-08-21T02:33:37;15.90;99.90
53045;DHT22;38930;52.766;6.884;2023-08-21T02:36:02;15.90;99.90
53045;DHT22;38930;52.766;6.884;2023-08-21T02:38:29;15.90;99.90
53045;DHT22;38930;52.766;6.884;2023-08-21T02:40:54;15.80;99.90
53045;DHT22;38930;52.766;6.884;2023-08-21T02:43:20;15.80;99.90
53045;DHT22;38930;52.766;6.884;2023-08-21T02:45:46;15.80;99.90
53045;DHT22;38930;52.766;6.884;2023-08-21T02:48:11;15.80;99.90
53045;DHT22;38930;52.766;6.884;2023-08-21T02:50:37;15.80;99.90
53045;DHT22;38930;52.766;6.884;2023-08-21T02:53:03;15.80;99.90
53045;DHT22;38930;52.766;6.884;2023-08-21T02:55:29;15.80;99.90
53045;DHT22;38930;52.766;6.884;2023-08-21T02:57:54;15.70;99.90
53045;DHT22;38930;52.766;6.884;2023-08-21T03:00:20;15.70;99.90
53045;DHT22;38930;52.766;6.884;2023-08-21T03:02:45;15.60;99.90
53045;DHT22;38930;52.766;6.884;2023-08-21T03:05:11;15.70;99.90
53045;DHT22;38930;52.766;6.884;2023-08-21T03:07:37;15.60;99.90
53045;DHT22;38930;52.766;6.884;2023-08-21T03:10:03;15.60;99.90
53045;DHT22;38930;52.766;6.884;2023-08-21T03:12:29;15.60;99.90
53045;DHT22;38930;52.766;6.884;2023-08-21T03:14:55;15.50;99.90
53045;DHT22;38930;52.766;6.884;2023-08-21T03:17:20;15.50;99.90
53045;DHT22;38930;52.766;6.884;2023-08-21T03:19:46;15.40;99.90
53045;DHT22;38930;52.766;6.884;2023-08-21T03:22:12;15.40;99.90
53045;DHT22;38930;52.766;6.884;2023-08-21T03:24:37;15.40;99.90
53045;DHT22;38930;52.766;6.884;2023-08-21T03:27:03;15.40;99.90
53045;DHT22;38930;52.766;6.884;2023-08-21T03:29:29;15.40;99.90
53045;DHT22;38930;52.766;6.884;2023-08-21T03:31:54;15.40;99.90
53045;DHT22;38930;52.766;6.884;2023-08-21T03:34:20;15.30;99.90
53045;DHT22;38930;52.766;6.884;2023-08-21T03:36:46;15.30;99.90
53045;DHT22;38930;52.766;6.884;2023-08-21T03:39:11;15.30;99.90
53045;DHT22;38930;52.766;6.884;2023-08-21T03:41:37;15.10;99.90
53045;DHT22;38930;52.766;6.884;2023-08-21T03:44:03;15.30;99.90
53045;DHT22;38930;52.766;6.884;2023-08-21T03:46:28;15.20;99.90
53045;DHT22;38930;52.766;6.884;2023-08-21T03:48:54;15.20;99.90
53045;DHT22;38930;52.766;6.884;2023-08-21T03:51:20;15.20;99.90
53045;DHT22;38930;52.766;6.884;2023-08-21T03:53:45;15.30;99.90
53045;DHT22;38930;52.766;6.884;2023-08-21T03:56:11;15.20;99.90
53045;DHT22;38930;52.766;6.884;2023-08-21T03:58:37;15.20;99.90
53045;DHT22;38930;52.766;6.884;2023-08-21T04:01:02;15.10;99.90
53045;DHT22;38930;52.766;6.884;2023-08-21T04:03:28;15.10;99.90
53045;DHT22;38930;52.766;6.884;2023-08-21T04:05:54;15.10;99.90
53045;DHT22;38930;52.766;6.884;2023-08-21T04:08:20;15.10;99.90
53045;DHT22;38930;52.766;6.884;2023-08-21T04:10:45;15.00;99.90
53045;DHT22;38930;52.766;6.884;2023-08-21T04:13:11;15.00;99.90
53045;DHT22;38930;52.766;6.884;2023-08-21T04:15:37;14.90;99.90
53045;DHT22;38930;52.766;6.884;2023-08-21T04:18:03;14.80;99.90
53045;DHT22;38930;52.766;6.884;2023-08-21T04:20:29;14.80;99.90
53045;DHT22;38930;52.766;6.884;2023-08-21T04:22:55;14.80;99.90
53045;DHT22;38930;52.766;6.884;2023-08-21T04:25:20;14.80;99.90
53045;DHT22;38930;52.766;6.884;2023-08-21T04:27:46;14.70;99.90
53045;DHT22;38930;52.766;6.884;2023-08-21T04:30:12;14.90;99.90
53045;DHT22;38930;52.766;6.884;2023-08-21T04:32:37;14.80;99.90
53045;DHT22;38930;52.766;6.884;2023-08-21T04:35:04;14.90;99.90
53045;DHT22;38930;52.766;6.884;2023-08-21T04:37:30;14.80;99.90
53045;DHT22;38930;52.766;6.884;2023-08-21T04:39:56;14.90;99.90
53045;DHT22;38930;52.766;6.884;2023-08-21T04:42:22;14.90;99.90
53045;DHT22;38930;52.766;6.884;2023-08-21T04:44:47;14.80;99.90
53045;DHT22;38930;52.766;6.884;2023-08-21T04:47:26;14.80;99.90
53045;DHT22;38930;52.766;6.884;2023-08-21T04:49:53;14.80;99.90
53045;DHT22;38930;52.766;6.884;2023-08-21T04:52:22;14.80;99.90
53045;DHT22;38930;52.766;6.884;2023-08-21T04:54:48;14.90;99.90
53045;DHT22;38930;52.766;6.884;2023-08-21T04:57:15;14.80;99.90
53045;DHT22;38930;52.766;6.884;2023-08-21T04:59:41;14.80;99.90
53045;DHT22;38930;52.766;6.884;2023-08-21T05:02:07;14.80;99.90
53045;DHT22;38930;52.766;6.884;2023-08-21T05:04:33;14.90;99.90
53045;DHT22;38930;52.766;6.884;2023-08-21T05:06:59;14.90;99.90
53045;DHT22;38930;52.766;6.884;2023-08-21T05:09:25;14.90;99.90
53045;DHT22;38930;52.766;6.884;2023-08-21T05:11:51;15.00;99.90
53045;DHT22;38930;52.766;6.884;2023-08-21T05:14:16;15.00;99.90
53045;DHT22;38930;52.766;6.884;2023-08-21T05:16:45;15.00;99.90
53045;DHT22;38930;52.766;6.884;2023-08-21T05:19:11;15.00;99.90
53045;DHT22;38930;52.766;6.884;2023-08-21T05:21:36;15.10;99.90
53045;DHT22;38930;52.766;6.884;2023-08-21T05:24:02;15.10;99.90
53045;DHT22;38930;52.766;6.884;2023-08-21T05:26:28;15.20;99.90
53045;DHT22;38930;52.766;6.884;2023-08-21T05:28:53;15.20;99.90
53045;DHT22;38930;52.766;6.884;2023-08-21T05:31:19;15.30;99.90
53045;DHT22;38930;52.766;6.884;2023-08-21T05:33:44;15.30;99.90
53045;DHT22;38930;52.766;6.884;2023-08-21T05:36:10;15.30;99.90
53045;DHT22;38930;52.766;6.884;2023-08-21T05:38:36;15.30;99.90
53045;DHT22;38930;52.766;6.884;2023-08-21T05:41:02;15.40;99.90
53045;DHT22;38930;52.766;6.884;2023-08-21T05:43:27;15.40;99.90
53045;DHT22;38930;52.766;6.884;2023-08-21T05:45:53;15.50;99.90
53045;DHT22;38930;52.766;6.884;2023-08-21T05:48:18;15.50;99.90
53045;DHT22;38930;52.766;6.884;2023-08-21T05:50:44;15.60;99.90
53045;DHT22;38930;52.766;6.884;2023-08-21T05:53:10;15.60;99.90
53045;DHT22;38930;52.766;6.884;2023-08-21T05:55:38;15.60;99.90
53045;DHT22;38930;52.766;6.884;2023-08-21T05:58:04;15.60;99.90
53045;DHT22;38930;52.766;6.884;2023-08-21T06:00:29;15.70;99.90
53045;DHT22;38930;52.766;6.884;2023-08-21T06:02:55;15.70;99.90
53045;DHT22;38930;52.766;6.884;2023-08-21T06:05:21;15.70;99.90
53045;DHT22;38930;52.766;6.884;2023-08-21T06:07:46;15.80;99.90
53045;DHT22;38930;52.766;6.884;2023-08-21T06:10:12;15.90;99.90
53045;DHT22;38930;52.766;6.884;2023-08-21T06:12:41;15.90;99.90
53045;DHT22;38930;52.766;6.884;2023-08-21T06:15:07;16.00;99.90
53045;DHT22;38930;52.766;6.884;2023-08-21T06:17:36;16.10;99.90
53045;DHT22;38930;52.766;6.884;2023-08-21T06:20:03;16.10;99.90
53045;DHT22;38930;52.766;6.884;2023-08-21T06:22:31;16.20;99.90
53045;DHT22;38930;52.766;6.884;2023-08-21T06:24:57;16.40;99.90
53045;DHT22;38930;52.766;6.884;2023-08-21T06:27:23;16.50;99.90
53045;DHT22;38930;52.766;6.884;2023-08-21T06:29:49;16.70;99.90
53045;DHT22;38930;52.766;6.884;2023-08-21T06:32:14;16.80;99.90
53045;DHT22;38930;52.766;6.884;2023-08-21T06:34:40;17.00;99.90
53045;DHT22;38930;52.766;6.884;2023-08-21T06:37:05;17.10;99.90
53045;DHT22;38930;52.766;6.884;2023-08-21T06:39:32;17.30;99.90
53045;DHT22;38930;52.766;6.884;2023-08-21T06:41:57;17.50;99.90
53045;DHT22;38930;52.766;6.884;2023-08-21T06:44:23;17.70;99.90
53045;DHT22;38930;52.766;6.884;2023-08-21T06:46:49;17.90;99.90
53045;DHT22;38930;52.766;6.884;2023-08-21T06:49:14;18.10;99.90
53045;DHT22;38930;52.766;6.884;2023-08-21T06:51:40;18.20;99.90
53045;DHT22;38930;52.766;6.884;2023-08-21T06:54:06;18.40;99.90
53045;DHT22;38930;52.766;6.884;2023-08-21T06:56:32;18.50;99.90
53045;DHT22;38930;52.766;6.884;2023-08-21T06:58:57;18.70;99.90
53045;DHT22;38930;52.766;6.884;2023-08-21T07:01:23;18.90;99.90
53045;DHT22;38930;52.766;6.884;2023-08-21T07:03:49;19.00;99.90
53045;DHT22;38930;52.766;6.884;2023-08-21T07:06:14;19.20;99.90
53045;DHT22;38930;52.766;6.884;2023-08-21T07:08:40;19.30;99.90
53045;DHT22;38930;52.766;6.884;2023-08-21T07:11:06;19.40;99.90
53045;DHT22;38930;52.766;6.884;2023-08-21T07:13:33;19.40;99.90
53045;DHT22;38930;52.766;6.884;2023-08-21T07:15:59;19.60;99.90
53045;DHT22;38930;52.766;6.884;2023-08-21T07:18:30;19.70;99.90
53045;DHT22;38930;52.766;6.884;2023-08-21T07:20:56;19.70;99.90
53045;DHT22;38930;52.766;6.884;2023-08-21T07:23:22;19.90;99.90
53045;DHT22;38930;52.766;6.884;2023-08-21T07:25:47;20.00;99.90
53045;DHT22;38930;52.766;6.884;2023-08-21T07:28:13;20.10;99.90
53045;DHT22;38930;52.766;6.884;2023-08-21T07:30:39;20.20;99.90
53045;DHT22;38930;52.766;6.884;2023-08-21T07:33:05;20.30;99.90
53045;DHT22;38930;52.766;6.884;2023-08-21T07:35:32;20.40;99.90
53045;DHT22;38930;52.766;6.884;2023-08-21T07:37:57;20.50;99.90
53045;DHT22;38930;52.766;6.884;2023-08-21T07:40:23;20.60;99.90
53045;DHT22;38930;52.766;6.884;2023-08-21T07:42:49;20.70;99.90
53045;DHT22;38930;52.766;6.884;2023-08-21T07:45:14;20.80;99.90
53045;DHT22;38930;52.766;6.884;2023-08-21T07:47:40;20.90;99.90
53045;DHT22;38930;52.766;6.884;2023-08-21T07:50:06;21.00;99.90
53045;DHT22;38930;52.766;6.884;2023-08-21T07:52:32;21.10;99.90
53045;DHT22;38930;52.766;6.884;2023-08-21T07:54:58;21.20;99.90
53045;DHT22;38930;52.766;6.884;2023-08-21T07:57:27;21.30;99.90
53045;DHT22;38930;52.766;6.884;2023-08-21T07:59:53;21.40;99.90
53045;DHT22;38930;52.766;6.884;2023-08-21T08:02:19;21.50;99.90
53045;DHT22;38930;52.766;6.884;2023-08-21T08:04:44;21.60;99.90
53045;DHT22;38930;52.766;6.884;2023-08-21T08:07:10;21.60;99.90
53045;DHT22;38930;52.766;6.884;2023-08-21T08:09:36;21.70;99.90
53045;DHT22;38930;52.766;6.884;2023-08-21T08:12:01;21.70;99.90
53045;DHT22;38930;52.766;6.884;2023-08-21T08:14:27;21.90;99.90
53045;DHT22;38930;52.766;6.884;2023-08-21T08:16:53;22.00;99.90
53045;DHT22;38930;52.766;6.884;2023-08-21T08:19:19;22.10;99.90
53045;DHT22;38930;52.766;6.884;2023-08-21T08:21:44;22.20;99.90
53045;DHT22;38930;52.766;6.884;2023-08-21T08:24:10;22.40;99.90
53045;DHT22;38930;52.766;6.884;2023-08-21T08:26:35;22.40;99.90
53045;DHT22;38930;52.766;6.884;2023-08-21T08:29:01;22.50;99.90
53045;DHT22;38930;52.766;6.884;2023-08-21T08:31:27;22.50;99.90
53045;DHT22;38930;52.766;6.884;2023-08-21T08:33:56;22.60;99.90
53045;DHT22;38930;52.766;6.884;2023-08-21T08:36:22;22.50;99.90
53045;DHT22;38930;52.766;6.884;2023-08-21T08:38:47;22.60;99.90
53045;DHT22;38930;52.766;6.884;2023-08-21T08:41:37;22.60;99.90
53045;DHT22;38930;52.766;6.884;2023-08-21T08:44:04;22.60;99.90
53045;DHT22;38930;52.766;6.884;2023-08-21T08:46:30;22.60;99.90
53045;DHT22;38930;52.766;6.884;2023-08-21T08:48:57;22.70;99.90
53045;DHT22;38930;52.766;6.884;2023-08-21T08:51:28;22.80;99.90
53045;DHT22;38930;52.766;6.884;2023-08-21T08:53:56;23.00;99.90
53045;DHT22;38930;52.766;6.884;2023-08-21T08:56:23;23.00;99.90
53045;DHT22;38930;52.766;6.884;2023-08-21T08:58:49;23.10;99.90
53045;DHT22;38930;52.766;6.884;2023-08-21T09:01:15;23.10;99.90
53045;DHT22;38930;52.766;6.884;2023-08-21T09:03:41;23.30;99.90
53045;DHT22;38930;52.766;6.884;2023-08-21T09:06:06;23.30;99.90
53045;DHT22;38930;52.766;6.884;2023-08-21T09:08:32;23.30;99.90
53045;DHT22;38930;52.766;6.884;2023-08-21T09:11:01;23.40;99.90
53045;DHT22;38930;52.766;6.884;2023-08-21T09:13:28;23.50;99.90
53045;DHT22;38930;52.766;6.884;2023-08-21T09:15:55;23.50;99.90
53045;DHT22;38930;52.766;6.884;2023-08-21T09:18:21;23.50;99.90
53045;DHT22;38930;52.766;6.884;2023-08-21T09:20:47;23.50;99.90
53045;DHT22;38930;52.766;6.884;2023-08-21T09:23:15;23.50;99.90
53045;DHT22;38930;52.766;6.884;2023-08-21T09:25:47;23.50;99.90
53045;DHT22;38930;52.766;6.884;2023-08-21T09:28:13;23.60;99.90
53045;DHT22;38930;52.766;6.884;2023-08-21T09:30:53;23.50;99.90
53045;DHT22;38930;52.766;6.884;2023-08-21T09:33:23;23.50;99.90
53045;DHT22;38930;52.766;6.884;2023-08-21T09:35:51;23.40;99.90
53045;DHT22;38930;52.766;6.884;2023-08-21T09:38:18;23.50;99.90
53045;DHT22;38930;52.766;6.884;2023-08-21T09:40:51;23.50;99.90
53045;DHT22;38930;52.766;6.884;2023-08-21T17:30:04;25.90;99.90
53045;DHT22;38930;52.766;6.884;2023-08-21T17:32:31;25.70;99.90
53045;DHT22;38930;52.766;6.884;2023-08-21T17:34:57;25.60;99.90
53045;DHT22;38930;52.766;6.884;2023-08-21T17:37:22;25.50;99.90
53045;DHT22;38930;52.766;6.884;2023-08-21T17:39:48;25.40;99.90
53045;DHT22;38930;52.766;6.884;2023-08-21T17:42:14;25.30;99.90
53045;DHT22;38930;52.766;6.884;2023-08-21T17:44:40;25.20;99.90
53045;DHT22;38930;52.766;6.884;2023-08-21T17:47:06;25.10;99.90
53045;DHT22;38930;52.766;6.884;2023-08-21T17:49:33;24.90;99.90
53045;DHT22;38930;52.766;6.884;2023-08-21T17:51:58;24.80;99.90
53045;DHT22;38930;52.766;6.884;2023-08-21T17:54:24;24.80;99.90
53045;DHT22;38930;52.766;6.884;2023-08-21T17:56:50;24.70;99.90
53045;DHT22;38930;52.766;6.884;2023-08-21T17:59:16;24.60;99.90
53045;DHT22;38930;52.766;6.884;2023-08-21T18:01:42;24.50;99.90
53045;DHT22;38930;52.766;6.884;2023-08-21T18:04:08;24.40;99.90
53045;DHT22;38930;52.766;6.884;2023-08-21T18:06:34;24.30;99.90
53045;DHT22;38930;52.766;6.884;2023-08-21T18:09:00;24.20;99.90
53045;DHT22;38930;52.766;6.884;2023-08-21T18:11:25;24.20;99.90
53045;DHT22;38930;52.766;6.884;2023-08-21T18:13:51;24.20;99.90
53045;DHT22;38930;52.766;6.884;2023-08-21T18:16:17;24.20;99.90
53045;DHT22;38930;52.766;6.884;2023-08-21T18:18:44;24.10;99.90
53045;DHT22;38930;52.766;6.884;2023-08-21T18:21:13;24.10;99.90
53045;DHT22;38930;52.766;6.884;2023-08-21T18:23:39;24.00;99.90
53045;DHT22;38930;52.766;6.884;2023-08-21T18:26:04;24.00;99.90
53045;DHT22;38930;52.766;6.884;2023-08-21T18:28:31;23.90;99.90
53045;DHT22;38930;52.766;6.884;2023-08-21T18:30:58;23.90;99.90
53045;DHT22;38930;52.766;6.884;2023-08-21T18:33:24;23.80;99.90
53045;DHT22;38930;52.766;6.884;2023-08-21T18:35:51;23.80;99.90
53045;DHT22;38930;52.766;6.884;2023-08-21T18:38:18;23.70;99.90
53045;DHT22;38930;52.766;6.884;2023-08-21T18:40:43;23.60;99.90
53045;DHT22;38930;52.766;6.884;2023-08-21T18:43:10;23.50;99.90
53045;DHT22;38930;52.766;6.884;2023-08-21T18:45:37;23.40;99.90
53045;DHT22;38930;52.766;6.884;2023-08-21T18:48:02;23.40;99.90
53045;DHT22;38930;52.766;6.884;2023-08-21T18:50:55;23.30;99.90
53045;DHT22;38930;52.766;6.884;2023-08-21T18:53:20;23.20;99.90
53045;DHT22;38930;52.766;6.884;2023-08-21T18:55:47;23.00;99.90
53045;DHT22;38930;52.766;6.884;2023-08-21T18:58:13;22.90;99.90
53045;DHT22;38930;52.766;6.884;2023-08-21T19:00:39;22.80;99.90
53045;DHT22;38930;52.766;6.884;2023-08-21T19:03:05;22.70;99.90
53045;DHT22;38930;52.766;6.884;2023-08-21T19:05:31;22.70;99.90
53045;DHT22;38930;52.766;6.884;2023-08-21T19:07:57;22.50;99.90
53045;DHT22;38930;52.766;6.884;2023-08-21T19:10:25;22.40;99.90
53045;DHT22;38930;52.766;6.884;2023-08-21T19:12:52;22.30;99.90
53045;DHT22;38930;52.766;6.884;2023-08-21T19:15:18;22.20;99.90
53045;DHT22;38930;52.766;6.884;2023-08-21T19:17:43;22.20;99.90
53045;DHT22;38930;52.766;6.884;2023-08-21T19:20:09;22.10;99.90
53045;DHT22;38930;52.766;6.884;2023-08-21T19:22:36;22.00;99.90
53045;DHT22;38930;52.766;6.884;2023-08-21T19:25:03;21.90;99.90
53045;DHT22;38930;52.766;6.884;2023-08-21T19:27:29;21.80;99.90
53045;DHT22;38930;52.766;6.884;2023-08-21T19:29:55;21.70;99.90
53045;DHT22;38930;52.766;6.884;2023-08-21T19:32:22;21.70;99.90
53045;DHT22;38930;52.766;6.884;2023-08-21T19:34:48;21.60;99.90
53045;DHT22;38930;52.766;6.884;2023-08-21T19:37:14;21.60;99.90
53045;DHT22;38930;52.766;6.884;2023-08-21T19:39:39;21.50;99.90
53045;DHT22;38930;52.766;6.884;2023-08-21T19:42:05;21.40;99.90
53045;DHT22;38930;52.766;6.884;2023-08-21T19:44:31;21.40;99.90
53045;DHT22;38930;52.766;6.884;2023-08-21T19:47:00;21.30;99.90
53045;DHT22;38930;52.766;6.884;2023-08-21T19:49:25;21.30;99.90
53045;DHT22;38930;52.766;6.884;2023-08-21T19:51:52;21.30;99.90
53045;DHT22;38930;52.766;6.884;2023-08-21T19:54:17;21.10;99.90
53045;DHT22;38930;52.766;6.884;2023-08-21T19:56:43;21.00;99.90
53045;DHT22;38930;52.766;6.884;2023-08-21T19:59:09;21.00;99.90
53045;DHT22;38930;52.766;6.884;2023-08-21T20:01:36;20.90;99.90
53045;DHT22;38930;52.766;6.884;2023-08-21T20:04:02;20.90;99.90
53045;DHT22;38930;52.766;6.884;2023-08-21T20:06:28;20.80;99.90
53045;DHT22;38930;52.766;6.884;2023-08-21T20:08:56;20.80;99.90
53045;DHT22;38930;52.766;6.884;2023-08-21T20:11:22;20.70;99.90
53045;DHT22;38930;52.766;6.884;2023-08-21T20:13:48;20.70;99.90
53045;DHT22;38930;52.766;6.884;2023-08-21T20:16:14;20.60;99.90
53045;DHT22;38930;52.766;6.884;2023-08-21T20:18:40;20.60;99.90
53045;DHT22;38930;52.766;6.884;2023-08-21T20:21:06;20.50;99.90
53045;DHT22;38930;52.766;6.884;2023-08-21T20:23:34;20.50;99.90
53045;DHT22;38930;52.766;6.884;2023-08-21T20:26:00;20.40;99.90
53045;DHT22;38930;52.766;6.884;2023-08-21T20:28:25;20.40;99.90
53045;DHT22;38930;52.766;6.884;2023-08-21T20:30:51;20.40;99.90
53045;DHT22;38930;52.766;6.884;2023-08-21T20:33:17;20.30;99.90
53045;DHT22;38930;52.766;6.884;2023-08-21T20:35:43;20.30;99.90
53045;DHT22;38930;52.766;6.884;2023-08-21T20:38:09;20.30;99.90
53045;DHT22;38930;52.766;6.884;2023-08-21T20:40:36;20.20;99.90
53045;DHT22;38930;52.766;6.884;2023-08-21T20:43:01;20.20;99.90
53045;DHT22;38930;52.766;6.884;2023-08-21T20:45:28;20.20;99.90
53045;DHT22;38930;52.766;6.884;2023-08-21T20:47:54;20.10;99.90
53045;DHT22;38930;52.766;6.884;2023-08-21T20:50:20;20.10;99.90
53045;DHT22;38930;52.766;6.884;2023-08-21T20:52:46;20.10;99.90
53045;DHT22;38930;52.766;6.884;2023-08-21T20:55:13;20.10;99.90
53045;DHT22;38930;52.766;6.884;2023-08-21T20:57:39;20.10;99.90
53045;DHT22;38930;52.766;6.884;2023-08-21T21:00:06;20.00;99.90
53045;DHT22;38930;52.766;6.884;2023-08-21T21:02:34;20.00;99.90
53045;DHT22;38930;52.766;6.884;2023-08-21T21:05:00;20.00;99.90
53045;DHT22;38930;52.766;6.884;2023-08-21T21:07:26;20.00;99.90
53045;DHT22;38930;52.766;6.884;2023-08-21T21:09:52;20.00;99.90
53045;DHT22;38930;52.766;6.884;2023-08-21T21:12:19;20.00;99.90
53045;DHT22;38930;52.766;6.884;2023-08-21T21:14:45;20.00;99.90
53045;DHT22;38930;52.766;6.884;2023-08-21T21:17:11;19.90;99.90
53045;DHT22;38930;52.766;6.884;2023-08-21T21:19:36;19.90;99.90
53045;DHT22;38930;52.766;6.884;2023-08-21T21:22:02;19.90;99.90
53045;DHT22;38930;52.766;6.884;2023-08-21T21:24:27;19.90;99.90
53045;DHT22;38930;52.766;6.884;2023-08-21T21:26:53;19.90;99.90
53045;DHT22;38930;52.766;6.884;2023-08-21T21:29:21;19.80;99.90
53045;DHT22;38930;52.766;6.884;2023-08-21T21:31:47;19.90;99.90
53045;DHT22;38930;52.766;6.884;2023-08-21T21:34:13;19.90;99.90
53045;DHT22;38930;52.766;6.884;2023-08-21T21:36:38;19.90;99.90
53045;DHT22;38930;52.766;6.884;2023-08-21T21:39:06;19.90;99.90
53045;DHT22;38930;52.766;6.884;2023-08-21T21:41:33;19.90;99.90
53045;DHT22;38930;52.766;6.884;2023-08-21T21:43:59;19.80;99.90
53045;DHT22;38930;52.766;6.884;2023-08-21T21:46:25;19.80;99.90
53045;DHT22;38930;52.766;6.884;2023-08-21T21:48:52;19.80;99.90
53045;DHT22;38930;52.766;6.884;2023-08-21T21:51:17;19.80;99.90
53045;DHT22;38930;52.766;6.884;2023-08-21T21:53:43;19.80;99.90
53045;DHT22;38930;52.766;6.884;2023-08-21T21:56:09;19.70;99.90
53045;DHT22;38930;52.766;6.884;2023-08-21T21:58:34;19.70;99.90
53045;DHT22;38930;52.766;6.884;2023-08-21T22:01:03;19.70;99.90
53045;DHT22;38930;52.766;6.884;2023-08-21T22:03:32;19.70;99.90
53045;DHT22;38930;52.766;6.884;2023-08-21T22:05:58;19.50;99.90
53045;DHT22;38930;52.766;6.884;2023-08-21T22:08:24;19.60;99.90
53045;DHT22;38930;52.766;6.884;2023-08-21T22:10:50;19.60;99.90
53045;DHT22;38930;52.766;6.884;2023-08-21T22:13:16;19.60;99.90
53045;DHT22;38930;52.766;6.884;2023-08-21T22:15:43;19.60;99.90
53045;DHT22;38930;52.766;6.884;2023-08-21T22:18:08;19.60;99.90
53045;DHT22;38930;52.766;6.884;2023-08-21T22:20:34;19.50;99.90
53045;DHT22;38930;52.766;6.884;2023-08-21T22:23:01;19.50;99.90
53045;DHT22;38930;52.766;6.884;2023-08-21T22:25:26;19.50;99.90
53045;DHT22;38930;52.766;6.884;2023-08-21T22:27:52;19.50;99.90
53045;DHT22;38930;52.766;6.884;2023-08-21T22:30:18;19.50;99.90
53045;DHT22;38930;52.766;6.884;2023-08-21T22:32:43;19.50;99.90
53045;DHT22;38930;52.766;6.884;2023-08-21T22:35:09;19.40;99.90
53045;DHT22;38930;52.766;6.884;2023-08-21T22:37:35;19.40;99.90
53045;DHT22;38930;52.766;6.884;2023-08-21T22:40:01;19.30;99.90
53045;DHT22;38930;52.766;6.884;2023-08-21T22:42:26;19.30;99.90
53045;DHT22;38930;52.766;6.884;2023-08-21T22:44:52;19.30;99.90
53045;DHT22;38930;52.766;6.884;2023-08-21T22:47:19;19.20;99.90
53045;DHT22;38930;52.766;6.884;2023-08-21T22:49:47;19.20;99.90
53045;DHT22;38930;52.766;6.884;2023-08-21T22:52:13;19.20;99.90
53045;DHT22;38930;52.766;6.884;2023-08-21T22:54:39;19.20;99.90
53045;DHT22;38930;52.766;6.884;2023-08-21T22:57:04;19.10;99.90
53045;DHT22;38930;52.766;6.884;2023-08-21T22:59:30;19.10;99.90
53045;DHT22;38930;52.766;6.884;2023-08-21T23:01:56;19.10;99.90
53045;DHT22;38930;52.766;6.884;2023-08-21T23:04:22;19.00;99.90
53045;DHT22;38930;52.766;6.884;2023-08-21T23:06:48;19.10;99.90
53045;DHT22;38930;52.766;6.884;2023-08-21T23:09:13;19.10;99.90
53045;DHT22;38930;52.766;6.884;2023-08-21T23:11:40;19.10;99.90
53045;DHT22;38930;52.766;6.884;2023-08-21T23:14:07;19.00;99.90